Time;durP1;ratioP1;P1;durP2;ratioP2;P2;SDS_P1;SDS_P2;PMS_P1;PMS_P2;Temp;Humidity;BMP_temperature;BMP_pressure;BME280_temperature;BME280_humidity;BME280_pressure;Samples;Min_cycle;Max_cycle;Signal;HPM_P1;HPM_P2
2023/03/01 00:01:26;;;;;;;1.90;1.70;;;15.50;55.00;;;;;;5082514;28;20211;-46
2023/03/01 00:04:01;;;;;;;1.73;1.33;;;15.50;55.10;;;;;;5043291;28;20200;-46
2023/03/01 00:06:45;;;;;;;1.97;1.67;;;15.50;55.10;;;;;;5064178;28;20395;-46
2023/03/01 00:09:18;;;;;;;1.70;1.60;;;15.50;55.10;;;;;;5066472;28;20205;-47
2023/03/01 00:11:49;;;;;;;1.60;1.50;;;15.40;55.20;;;;;;5062497;28;20631;-47
2023/03/01 00:14:19;;;;;;;2.17;1.70;;;15.40;55.20;;;;;;5048688;28;20213;-46
2023/03/01 00:16:49;;;;;;;1.60;1.30;;;15.50;55.20;;;;;;5049713;28;20218;-46
2023/03/01 00:19:21;;;;;;;2.97;1.80;;;15.40;55.20;;;;;;5065896;28;20221;-47
2023/03/01 00:21:57;;;;;;;2.97;1.60;;;15.40;55.20;;;;;;5058497;28;20514;-46
2023/03/01 00:24:27;;;;;;;1.80;1.70;;;15.40;55.30;;;;;;5064434;28;20208;-46
2023/03/01 00:26:59;;;;;;;1.80;1.67;;;15.40;55.40;;;;;;5039642;28;20613;-47
2023/03/01 00:29:30;;;;;;;3.00;1.67;;;15.40;55.40;;;;;;5066833;28;20580;-46
2023/03/01 00:32:00;;;;;;;1.53;1.43;;;15.40;55.40;;;;;;5072029;28;20193;-46
2023/03/01 00:34:38;;;;;;;1.80;1.70;;;15.40;55.50;;;;;;5060140;28;20596;-47
2023/03/01 00:37:07;;;;;;;1.43;1.27;;;15.30;55.40;;;;;;5049252;28;20241;-47
2023/03/01 00:39:39;;;;;;;1.70;1.60;;;15.30;55.50;;;;;;5051230;28;20203;-46
2023/03/01 00:42:12;;;;;;;1.60;1.47;;;15.30;55.50;;;;;;5059547;28;20213;-46
2023/03/01 00:44:40;;;;;;;1.47;1.37;;;15.30;55.60;;;;;;5060510;28;20201;-47
2023/03/01 00:47:10;;;;;;;3.10;1.73;;;15.30;55.60;;;;;;5037740;28;20207;-47
2023/03/01 00:49:40;;;;;;;1.67;1.43;;;15.30;55.60;;;;;;5067119;28;20202;-47
2023/03/01 00:52:10;;;;;;;1.30;1.17;;;15.30;55.70;;;;;;5049424;28;20258;-47
2023/03/01 00:54:41;;;;;;;1.70;1.50;;;15.30;55.70;;;;;;5064530;28;20427;-46
2023/03/01 00:57:12;;;;;;;1.70;1.60;;;15.30;55.70;;;;;;5069103;28;20189;-46
2023/03/01 00:59:42;;;;;;;2.00;1.30;;;15.30;55.70;;;;;;5066454;28;20252;-46
2023/03/01 01:02:13;;;;;;;2.90;1.53;;;15.30;55.70;;;;;;5056177;28;20190;-46
2023/03/01 01:04:49;;;;;;;2.17;1.77;;;15.20;55.70;;;;;;5066129;28;20662;-47
2023/03/01 01:07:23;;;;;;;1.50;1.40;;;15.20;55.70;;;;;;5064711;28;20197;-46
2023/03/01 01:09:55;;;;;;;1.80;1.70;;;15.20;55.80;;;;;;5059788;28;20197;-47
2023/03/01 01:12:27;;;;;;;1.53;1.43;;;15.20;55.80;;;;;;5050224;28;20206;-46
2023/03/01 01:14:58;;;;;;;1.53;1.30;;;15.20;55.80;;;;;;5065097;28;20231;-46
2023/03/01 01:17:27;;;;;;;1.83;1.47;;;15.20;55.80;;;;;;5055748;28;20193;-47
2023/03/01 01:19:57;;;;;;;1.77;1.30;;;15.20;55.90;;;;;;5051996;28;20236;-47
2023/03/01 01:22:26;;;;;;;1.73;1.50;;;15.20;56.00;;;;;;5042517;28;20576;-46
2023/03/01 01:24:54;;;;;;;1.60;1.50;;;15.20;55.90;;;;;;5062897;28;20201;-47
2023/03/01 01:27:29;;;;;;;1.50;1.30;;;15.20;56.00;;;;;;5065815;28;20533;-46
2023/03/01 01:30:00;;;;;;;1.90;1.80;;;15.10;55.90;;;;;;5049504;28;20201;-47
2023/03/01 01:32:33;;;;;;;1.37;1.27;;;15.10;55.90;;;;;;5050956;28;20194;-46
2023/03/01 01:35:02;;;;;;;2.20;1.90;;;15.10;56.00;;;;;;5059891;28;20230;-46
2023/03/01 01:37:33;;;;;;;1.50;1.40;;;15.10;56.00;;;;;;5064037;28;20756;-46
2023/03/01 01:40:05;;;;;;;1.60;1.33;;;15.10;56.00;;;;;;5054257;28;20216;-47
2023/03/01 01:42:36;;;;;;;1.67;1.33;;;15.10;56.00;;;;;;5060550;28;20618;-46
2023/03/01 01:45:27;;;;;;;1.83;1.70;;;15.10;56.10;;;;;;5054979;28;20205;-46
2023/03/01 01:48:03;;;;;;;2.10;1.60;;;15.10;56.00;;;;;;5054377;28;20636;-46
2023/03/01 01:50:38;;;;;;;1.60;1.50;;;15.10;56.20;;;;;;5046957;28;20259;-47
2023/03/01 01:53:28;;;;;;;1.40;1.10;;;15.10;56.20;;;;;;5066508;28;20575;-47
2023/03/01 01:56:06;;;;;;;1.63;1.53;;;15.10;56.10;;;;;;5066733;28;20212;-46
2023/03/01 01:58:43;;;;;;;1.63;1.43;;;15.00;56.10;;;;;;5028703;28;20193;-47
2023/03/01 02:01:30;;;;;;;1.47;1.37;;;15.00;56.20;;;;;;5050884;28;20287;-46
2023/03/01 02:03:59;;;;;;;1.83;1.33;;;15.00;56.20;;;;;;5066565;28;20197;-46
2023/03/01 02:06:50;;;;;;;1.47;1.20;;;15.00;56.20;;;;;;5035319;28;20193;-46
2023/03/01 02:09:22;;;;;;;1.47;1.37;;;15.00;56.20;;;;;;5064014;28;20818;-47
2023/03/01 02:11:53;;;;;;;1.23;1.13;;;15.00;56.90;;;;;;5065577;28;20209;-46
2023/03/01 02:14:20;;;;;;;2.00;1.80;;;15.00;56.40;;;;;;5035621;28;20198;-47
2023/03/01 02:16:54;;;;;;;1.53;1.13;;;15.00;56.30;;;;;;5058004;28;20275;-46
2023/03/01 02:20:06;;;;;;;1.57;1.40;;;15.00;56.30;;;;;;5055047;28;20202;-47
2023/03/01 02:22:39;;;;;;;1.53;1.40;;;15.00;56.30;;;;;;5059863;28;20208;-46
2023/03/01 02:25:35;;;;;;;2.30;1.43;;;15.00;56.80;;;;;;5045732;28;20208;-46
2023/03/01 02:28:16;;;;;;;3.00;1.50;;;15.00;56.40;;;;;;5041627;28;20788;-46
2023/03/01 02:33:52;;;;;;;1.67;1.57;;;14.90;56.40;;;;;;5066698;28;20212;-46
2023/03/01 02:36:28;;;;;;;2.23;1.90;;;14.90;56.40;;;;;;5062114;28;20240;-46
2023/03/01 02:39:04;;;;;;;1.67;1.57;;;14.90;56.50;;;;;;5062436;28;20224;-47
2023/03/01 02:41:35;;;;;;;2.00;1.83;;;14.90;56.50;;;;;;5072024;28;20664;-47
2023/03/01 02:44:08;;;;;;;2.07;1.60;;;14.90;56.50;;;;;;5069340;28;20597;-47
2023/03/01 02:46:48;;;;;;;1.67;1.57;;;14.90;56.50;;;;;;5083608;28;20204;-46
2023/03/01 02:49:23;;;;;;;1.90;1.30;;;14.90;56.60;;;;;;5075739;28;20599;-46
2023/03/01 02:52:25;;;;;;;1.47;1.30;;;14.90;56.70;;;;;;5072129;28;20201;-47
2023/03/01 02:55:24;;;;;;;3.97;1.70;;;14.90;56.60;;;;;;5085522;28;20254;-46
2023/03/01 02:57:56;;;;;;;1.50;1.30;;;14.90;56.70;;;;;;5061382;28;20216;-47
2023/03/01 03:00:32;;;;;;;2.63;1.27;;;14.90;56.70;;;;;;5065011;28;20225;-46
2023/03/01 03:03:04;;;;;;;1.57;1.47;;;14.90;56.70;;;;;;5072101;28;20181;-47
2023/03/01 03:05:34;;;;;;;2.00;1.40;;;14.90;56.70;;;;;;5072236;28;20193;-47
2023/03/01 03:08:09;;;;;;;1.57;1.40;;;14.90;56.70;;;;;;5093862;28;20207;-46
2023/03/01 03:10:43;;;;;;;1.60;1.50;;;14.80;56.70;;;;;;5065192;28;20197;-46
2023/03/01 03:13:19;;;;;;;1.43;1.10;;;14.90;56.80;;;;;;5072868;28;20269;-46
2023/03/01 03:15:50;;;;;;;1.80;1.50;;;14.90;56.80;;;;;;5089227;28;20196;-47
2023/03/01 03:18:20;;;;;;;1.70;1.40;;;14.90;56.70;;;;;;5089504;28;20193;-47
2023/03/01 03:20:53;;;;;;;1.37;1.27;;;14.90;56.80;;;;;;5089047;28;20972;-46
2023/03/01 03:23:25;;;;;;;1.57;1.47;;;14.80;56.70;;;;;;5067205;28;20570;-46
2023/03/01 03:26:00;;;;;;;1.77;1.50;;;14.90;56.80;;;;;;5080057;28;20545;-46
2023/03/01 03:28:40;;;;;;;2.90;1.57;;;14.80;56.80;;;;;;5086463;28;20221;-46
2023/03/01 03:31:11;;;;;;;1.53;1.40;;;14.80;56.80;;;;;;5089310;28;20208;-46
2023/03/01 03:33:40;;;;;;;1.50;1.40;;;14.80;56.80;;;;;;5085986;28;20633;-47
2023/03/01 03:36:26;;;;;;;1.73;1.30;;;14.80;56.80;;;;;;5071382;28;20205;-46
2023/03/01 03:38:55;;;;;;;1.70;1.40;;;14.80;56.90;;;;;;5054387;28;20222;-46
2023/03/01 03:41:26;;;;;;;1.33;1.23;;;14.80;56.80;;;;;;5068515;28;20214;-46
2023/03/01 03:43:59;;;;;;;1.53;1.30;;;14.80;56.90;;;;;;5082255;28;20205;-47
2023/03/01 03:46:27;;;;;;;1.77;1.43;;;14.80;56.80;;;;;;5053046;28;20224;-47
2023/03/01 03:49:04;;;;;;;1.97;1.77;;;14.80;56.80;;;;;;5050419;28;20809;-47
2023/03/01 03:51:34;;;;;;;1.40;1.30;;;14.80;56.80;;;;;;5067568;28;20201;-46
2023/03/01 03:54:02;;;;;;;2.20;1.57;;;14.80;56.80;;;;;;5065125;28;20201;-50
2023/03/01 03:56:32;;;;;;;1.57;1.47;;;14.80;56.90;;;;;;5056190;28;20201;-46
2023/03/01 03:59:02;;;;;;;1.90;1.70;;;14.70;56.80;;;;;;5065528;28;20777;-47
2023/03/01 04:01:31;;;;;;;2.43;1.87;;;14.70;56.90;;;;;;5068306;28;20225;-47
2023/03/01 04:04:08;;;;;;;2.23;1.57;;;14.70;56.90;;;;;;5052148;28;20205;-46
2023/03/01 04:06:42;;;;;;;1.87;1.57;;;14.70;56.80;;;;;;5070229;28;20204;-46
2023/03/01 04:09:13;;;;;;;1.93;1.53;;;14.70;56.90;;;;;;5056381;28;20194;-47
2023/03/01 04:11:43;;;;;;;2.23;1.50;;;14.70;56.90;;;;;;5065436;28;20561;-46
2023/03/01 04:14:13;;;;;;;2.40;1.60;;;14.70;56.90;;;;;;5067402;28;20257;-47
2023/03/01 04:16:54;;;;;;;1.70;1.60;;;14.70;57.00;;;;;;5047577;28;20869;-47
2023/03/01 04:19:22;;;;;;;2.07;1.60;;;14.70;57.00;;;;;;5032805;28;20204;-46
2023/03/01 04:21:55;;;;;;;2.13;1.93;;;14.70;57.00;;;;;;5066708;28;20220;-47
2023/03/01 04:24:32;;;;;;;1.73;1.53;;;14.70;56.90;;;;;;5061302;28;20193;-47
2023/03/01 04:27:04;;;;;;;2.07;1.67;;;14.70;56.90;;;;;;5057145;28;20187;-46
2023/03/01 04:29:32;;;;;;;1.60;1.50;;;14.70;56.90;;;;;;5066663;28;20213;-46
2023/03/01 04:32:02;;;;;;;2.03;1.53;;;14.70;56.80;;;;;;5067088;28;20197;-47
2023/03/01 04:34:35;;;;;;;3.23;1.60;;;14.70;56.80;;;;;;5061874;28;20221;-46
2023/03/01 04:37:03;;;;;;;1.63;1.50;;;14.70;56.80;;;;;;5073659;28;20618;-46
2023/03/01 04:39:32;;;;;;;2.17;1.63;;;14.70;56.80;;;;;;5088152;28;20200;-47
2023/03/01 04:42:04;;;;;;;1.53;1.17;;;14.70;56.80;;;;;;5085911;28;20243;-46
2023/03/01 04:44:33;;;;;;;1.97;1.83;;;14.60;56.80;;;;;;5084775;28;20197;-47
2023/03/01 04:47:05;;;;;;;2.13;1.90;;;14.60;56.70;;;;;;5085263;28;20221;-49
2023/03/01 04:49:34;;;;;;;1.60;1.50;;;14.60;56.80;;;;;;5068213;28;20193;-47
2023/03/01 04:52:17;;;;;;;1.93;1.30;;;14.60;56.70;;;;;;5086979;28;20284;-46
2023/03/01 04:54:50;;;;;;;1.50;1.40;;;14.60;56.80;;;;;;5084967;28;20201;-47
2023/03/01 04:57:24;;;;;;;1.93;1.50;;;14.60;56.70;;;;;;5087474;28;20208;-46
2023/03/01 04:59:53;;;;;;;1.53;1.30;;;14.60;56.70;;;;;;5081947;28;20212;-46
2023/03/01 05:02:24;;;;;;;2.60;2.10;;;14.60;56.70;;;;;;5084075;28;20307;-47
2023/03/01 05:04:57;;;;;;;2.80;2.00;;;14.60;56.80;;;;;;5068891;28;20189;-47
2023/03/01 05:07:26;;;;;;;1.97;1.77;;;14.60;56.70;;;;;;5086888;28;20647;-47
2023/03/01 05:09:56;;;;;;;1.53;1.40;;;14.60;56.70;;;;;;5086457;28;20688;-47
2023/03/01 05:12:26;;;;;;;1.97;1.60;;;14.60;56.70;;;;;;5081732;28;20199;-46
2023/03/01 05:14:58;;;;;;;1.57;1.47;;;14.50;56.70;;;;;;5086823;28;20185;-46
2023/03/01 05:17:40;;;;;;;1.50;1.20;;;14.60;56.70;;;;;;5087080;28;20228;-46
2023/03/01 05:20:11;;;;;;;2.20;1.70;;;14.60;56.70;;;;;;5069037;28;20642;-47
2023/03/01 05:22:40;;;;;;;1.60;1.30;;;14.50;56.70;;;;;;5079845;28;20208;-46
2023/03/01 05:25:10;;;;;;;1.87;1.77;;;14.60;56.70;;;;;;5085522;28;20526;-46
2023/03/01 05:27:40;;;;;;;1.90;1.70;;;14.60;56.70;;;;;;5083595;28;20205;-47
2023/03/01 05:30:17;;;;;;;2.40;1.40;;;14.60;56.70;;;;;;5084341;28;20204;-47
2023/03/01 05:32:49;;;;;;;2.37;2.10;;;14.50;56.70;;;;;;5053835;28;20654;-46
2023/03/01 05:35:21;;;;;;;2.03;1.83;;;14.50;56.70;;;;;;5071340;28;20210;-46
2023/03/01 05:37:58;;;;;;;1.60;1.50;;;14.50;56.70;;;;;;5077688;28;20237;-46
2023/03/01 05:40:29;;;;;;;1.83;1.40;;;14.50;56.70;;;;;;5063445;28;20212;-47
2023/03/01 05:42:59;;;;;;;3.17;1.40;;;14.50;56.70;;;;;;5066871;28;20596;-46
2023/03/01 05:45:29;;;;;;;3.00;1.13;;;14.50;56.70;;;;;;5069756;28;20203;-46
2023/03/01 05:48:01;;;;;;;1.90;1.60;;;14.50;56.70;;;;;;5055003;28;20232;-47
2023/03/01 05:50:35;;;;;;;2.17;1.47;;;14.50;56.70;;;;;;5058534;28;20277;-46
2023/03/01 05:53:15;;;;;;;3.87;1.50;;;14.50;56.70;;;;;;5066759;28;20216;-47
2023/03/01 05:55:47;;;;;;;1.60;1.50;;;14.50;56.70;;;;;;5069642;28;20555;-46
2023/03/01 05:58:21;;;;;;;1.70;1.60;;;14.50;56.70;;;;;;5069689;28;20255;-47
2023/03/01 06:00:50;;;;;;;3.43;2.13;;;14.50;56.60;;;;;;5064442;28;20744;-46
2023/03/01 06:03:24;;;;;;;1.70;1.60;;;14.40;56.60;;;;;;5059828;28;20195;-47
2023/03/01 06:05:57;;;;;;;1.80;1.70;;;14.50;56.70;;;;;;5049991;28;20243;-46
2023/03/01 06:08:27;;;;;;;1.90;1.80;;;14.50;56.70;;;;;;5036364;28;20228;-46
2023/03/01 06:10:56;;;;;;;2.17;1.77;;;14.40;56.50;;;;;;5067743;28;20542;-46
2023/03/01 06:13:29;;;;;;;2.57;1.60;;;14.50;56.60;;;;;;5061788;28;20224;-47
2023/03/01 06:16:08;;;;;;;2.30;1.87;;;14.40;56.60;;;;;;5068464;28;20200;-46
2023/03/01 06:19:03;;;;;;;1.50;1.40;;;14.40;56.50;;;;;;5041665;28;20198;-46
2023/03/01 06:21:32;;;;;;;1.93;1.50;;;14.40;56.50;;;;;;5065933;28;20215;-46
2023/03/01 06:24:05;;;;;;;2.67;2.03;;;14.40;56.50;;;;;;5069229;28;20221;-46
2023/03/01 06:26:38;;;;;;;2.23;2.03;;;14.40;56.50;;;;;;5067417;28;20250;-47
2023/03/01 06:29:07;;;;;;;1.77;1.67;;;14.50;56.60;;;;;;5063470;28;20642;-46
2023/03/01 06:31:39;;;;;;;2.33;2.13;;;14.40;56.50;;;;;;5044517;28;20206;-46
2023/03/01 06:34:13;;;;;;;1.90;1.67;;;14.50;56.60;;;;;;5066471;28;20259;-46
2023/03/01 06:36:47;;;;;;;1.60;1.50;;;14.40;56.60;;;;;;5046287;28;20290;-46
2023/03/01 06:39:21;;;;;;;2.33;1.83;;;14.40;56.70;;;;;;5080408;28;20461;-46
2023/03/01 06:41:55;;;;;;;1.93;1.70;;;14.40;56.60;;;;;;5066282;28;20210;-46
2023/03/01 06:44:31;;;;;;;3.80;1.77;;;14.50;56.70;;;;;;5043238;28;20201;-46
2023/03/01 06:47:14;;;;;;;1.93;1.80;;;14.50;56.70;;;;;;5037565;28;20237;-46
2023/03/01 06:49:44;;;;;;;7.53;1.90;;;14.40;56.70;;;;;;5066001;28;20229;-47
2023/03/01 06:52:16;;;;;;;2.37;1.90;;;14.50;56.70;;;;;;5068027;28;20250;-46
2023/03/01 06:54:46;;;;;;;2.93;1.87;;;14.50;56.70;;;;;;5065731;28;20206;-47
2023/03/01 06:57:18;;;;;;;3.47;1.90;;;14.50;56.60;;;;;;5068576;28;20202;-46
2023/03/01 06:59:47;;;;;;;2.13;1.90;;;14.50;56.70;;;;;;5064970;28;20699;-46
2023/03/01 07:02:19;;;;;;;2.03;1.70;;;14.50;56.40;;;;;;5050043;28;20244;-46
2023/03/01 07:04:52;;;;;;;2.43;2.03;;;14.50;56.30;;;;;;5070660;28;20204;-46
2023/03/01 07:07:24;;;;;;;4.17;1.43;;;14.50;56.30;;;;;;5050874;28;20190;-46
2023/03/01 07:09:55;;;;;;;2.20;2.00;;;14.50;56.10;;;;;;5068753;28;20199;-46
2023/03/01 07:12:27;;;;;;;4.17;2.00;;;14.50;56.10;;;;;;5063747;28;20378;-46
2023/03/01 07:14:59;;;;;;;2.30;2.07;;;14.50;56.00;;;;;;5069064;28;20186;-46
2023/03/01 07:17:28;;;;;;;2.27;2.07;;;14.50;56.00;;;;;;5071748;28;20205;-46
2023/03/01 07:19:58;;;;;;;2.03;1.83;;;14.50;55.90;;;;;;5048770;28;20554;-46
2023/03/01 07:22:27;;;;;;;2.27;2.00;;;14.50;55.80;;;;;;5064309;28;20221;-46
2023/03/01 07:24:54;;;;;;;2.90;2.10;;;14.50;55.70;;;;;;5068677;28;20201;-48
2023/03/01 07:27:23;;;;;;;3.30;1.90;;;14.50;55.70;;;;;;5051361;28;20221;-47
2023/03/01 07:29:55;;;;;;;3.50;1.70;;;14.50;55.60;;;;;;5067542;28;20679;-46
2023/03/01 07:32:27;;;;;;;1.50;1.40;;;14.50;55.60;;;;;;5064439;28;20233;-46
2023/03/01 07:35:06;;;;;;;4.33;1.87;;;14.50;55.60;;;;;;5049234;28;20198;-47
2023/03/01 07:37:41;;;;;;;1.87;1.50;;;14.50;55.60;;;;;;5066613;28;20240;-46
2023/03/01 07:40:13;;;;;;;2.83;1.90;;;14.50;55.70;;;;;;5066030;28;20197;-47
2023/03/01 07:42:45;;;;;;;2.50;1.97;;;14.50;55.70;;;;;;5062628;28;20690;-46
2023/03/01 07:45:15;;;;;;;2.60;1.50;;;14.50;55.60;;;;;;5058235;28;20193;-46
2023/03/01 07:47:47;;;;;;;6.07;2.93;;;14.50;55.60;;;;;;5032788;28;20255;-47
2023/03/01 07:50:20;;;;;;;69.20;15.67;;;14.60;55.70;;;;;;5048990;28;20272;-47
2023/03/01 07:52:53;;;;;;;60.67;16.50;;;14.70;57.30;;;;;;5049453;28;20671;-47
2023/03/01 07:55:25;;;;;;;59.03;14.67;;;14.90;58.10;;;;;;5066926;28;20196;-47
2023/03/01 07:57:57;;;;;;;46.53;13.30;;;15.20;58.20;;;;;;5064675;28;20224;-47
2023/03/01 08:00:25;;;;;;;45.53;12.17;;;15.40;58.00;;;;;;5048978;28;20222;-48
2023/03/01 08:02:58;;;;;;;36.60;11.40;;;15.70;57.50;;;;;;5058623;28;20554;-47
2023/03/01 08:05:26;;;;;;;39.33;10.40;;;16.00;56.80;;;;;;5036091;28;20198;-47
2023/03/01 08:07:55;;;;;;;30.17;9.17;;;16.20;56.40;;;;;;5047065;28;20202;-47
2023/03/01 08:10:27;;;;;;;27.87;9.17;;;16.50;55.80;;;;;;5051841;28;20252;-47
2023/03/01 08:12:55;;;;;;;31.67;8.37;;;16.70;55.10;;;;;;5066700;28;20197;-47
2023/03/01 08:15:24;;;;;;;28.70;8.03;;;16.90;54.70;;;;;;5065306;28;20189;-47
2023/03/01 08:17:54;;;;;;;25.73;7.27;;;17.10;54.50;;;;;;5065606;28;20486;-47
2023/03/01 08:20:23;;;;;;;21.07;7.03;;;17.20;54.20;;;;;;5060909;28;20267;-47
2023/03/01 08:22:59;;;;;;;16.63;5.90;;;17.40;54.00;;;;;;5060594;28;20751;-47
2023/03/01 08:25:31;;;;;;;17.00;6.50;;;17.60;53.60;;;;;;5065637;28;20202;-48
2023/03/01 08:28:01;;;;;;;17.43;5.57;;;17.70;53.50;;;;;;5060102;28;21038;-47
2023/03/01 08:30:32;;;;;;;12.57;5.00;;;17.80;53.30;;;;;;5054072;28;20198;-47
2023/03/01 08:33:04;;;;;;;15.23;4.90;;;18.00;53.10;;;;;;5065486;28;20282;-47
2023/03/01 08:35:35;;;;;;;16.40;4.90;;;18.10;52.70;;;;;;5062469;28;20206;-46
2023/03/01 08:38:06;;;;;;;9.30;4.00;;;18.20;52.00;;;;;;5061323;28;20230;-46
2023/03/01 08:40:41;;;;;;;12.53;4.33;;;18.40;51.70;;;;;;5038262;28;21739;-47
2023/03/01 08:43:13;;;;;;;11.40;3.90;;;18.60;51.50;;;;;;5058516;28;20220;-47
2023/03/01 08:45:44;;;;;;;7.87;3.53;;;18.80;51.10;;;;;;5064316;28;20186;-48
2023/03/01 08:48:14;;;;;;;14.33;4.40;;;19.00;50.90;;;;;;5059310;28;20205;-47
2023/03/01 08:50:46;;;;;;;9.93;3.87;;;19.20;50.70;;;;;;5043660;28;20281;-48
2023/03/01 08:53:16;;;;;;;7.83;3.50;;;19.30;50.20;;;;;;5069226;28;20255;-47
2023/03/01 08:55:56;;;;;;;9.70;3.23;;;19.40;50.00;;;;;;5066082;28;20205;-47
2023/03/01 08:58:28;;;;;;;6.47;3.10;;;19.60;49.70;;;;;;5041768;28;20205;-47
2023/03/01 09:00:57;;;;;;;5.83;2.43;;;19.70;49.30;;;;;;5050772;28;20527;-46
2023/03/01 09:03:27;;;;;;;5.87;2.57;;;19.90;49.60;;;;;;5064879;28;20219;-47
2023/03/01 09:06:01;;;;;;;7.07;2.90;;;19.90;49.00;;;;;;5047024;28;20213;-47
2023/03/01 09:08:39;;;;;;;6.50;2.80;;;20.10;46.90;;;;;;5027775;28;20204;-46
2023/03/01 09:11:08;;;;;;;7.70;3.60;;;19.80;45.10;;;;;;5054703;28;20205;-48
2023/03/01 09:13:38;;;;;;;5.03;2.60;;;19.70;46.70;;;;;;5046497;28;20647;-47
2023/03/01 09:16:17;;;;;;;5.20;2.90;;;19.50;47.70;;;;;;5064780;28;20695;-48
2023/03/01 09:18:54;;;;;;;7.53;3.33;;;19.50;48.20;;;;;;5062806;28;20200;-48
2023/03/01 09:21:23;;;;;;;7.73;3.03;;;19.50;48.20;;;;;;5044248;28;20213;-47
2023/03/01 09:24:14;;;;;;;3.83;2.87;;;19.40;48.40;;;;;;5035174;28;20199;-47
2023/03/01 09:26:46;;;;;;;4.90;2.60;;;19.40;48.00;;;;;;5058153;28;20220;-47
2023/03/01 09:29:20;;;;;;;5.47;3.00;;;19.30;48.70;;;;;;5044072;28;20194;-46
2023/03/01 09:31:54;;;;;;;4.00;2.70;;;19.20;48.70;;;;;;5065541;28;20229;-47
2023/03/01 09:34:31;;;;;;;7.33;3.10;;;19.20;48.80;;;;;;5060128;28;20229;-47
2023/03/01 09:37:02;;;;;;;4.70;3.10;;;19.20;49.00;;;;;;5047931;28;20214;-46
2023/03/01 09:39:34;;;;;;;4.10;2.90;;;19.10;48.90;;;;;;5061374;28;20237;-47
2023/03/01 09:42:05;;;;;;;6.67;3.60;;;19.10;48.80;;;;;;5051594;28;20217;-46
2023/03/01 09:44:51;;;;;;;5.10;3.13;;;19.00;49.20;;;;;;5059704;28;20204;-45
2023/03/01 09:47:29;;;;;;;4.87;2.37;;;19.00;49.60;;;;;;5056862;28;20546;-48
2023/03/01 09:50:20;;;;;;;3.77;2.57;;;19.00;50.40;;;;;;5063147;28;20749;-47
2023/03/01 09:53:17;;;;;;;3.60;2.27;;;18.90;50.30;;;;;;5049009;28;20577;-46
2023/03/01 09:56:10;;;;;;;3.23;2.53;;;18.90;50.30;;;;;;5064592;28;20733;-46
2023/03/01 09:59:15;;;;;;;5.10;2.90;;;18.80;50.50;;;;;;5060246;28;20194;-46
2023/03/01 10:01:57;;;;;;;3.77;2.83;;;18.80;50.70;;;;;;5061031;28;20193;-46
2023/03/01 10:04:54;;;;;;;3.53;2.67;;;18.80;51.10;;;;;;5052687;28;20190;-46
2023/03/01 10:07:53;;;;;;;4.83;2.73;;;18.80;50.90;;;;;;5063700;28;20213;-47
2023/03/01 10:10:28;;;;;;;3.37;2.20;;;18.80;51.10;;;;;;5063077;28;20776;-46
2023/03/01 10:12:57;;;;;;;3.73;2.77;;;18.80;51.20;;;;;;5065069;28;20200;-45
2023/03/01 10:15:41;;;;;;;3.73;3.00;;;18.80;51.20;;;;;;5044277;28;20209;-45
2023/03/01 10:18:20;;;;;;;4.03;2.63;;;18.80;51.20;;;;;;5064372;28;20644;-46
2023/03/01 10:21:23;;;;;;;4.97;2.20;;;18.80;51.60;;;;;;5042513;28;20193;-48
2023/03/01 10:23:54;;;;;;;4.53;2.57;;;18.70;51.10;;;;;;5043784;28;20472;-48
2023/03/01 10:27:02;;;;;;;3.20;2.80;;;18.70;51.50;;;;;;5041116;28;20202;-47
2023/03/01 10:29:50;;;;;;;4.73;2.70;;;18.70;51.30;;;;;;4947759;28;20205;-48
2023/03/01 10:32:22;;;;;;;4.17;2.40;;;18.60;51.60;;;;;;5044984;28;20193;-46
2023/03/01 10:34:52;;;;;;;3.70;2.67;;;18.60;52.20;;;;;;5060986;28;20238;-45
2023/03/01 10:37:25;;;;;;;4.80;3.27;;;18.60;51.90;;;;;;5058112;28;20197;-47
2023/03/01 10:40:10;;;;;;;3.37;2.60;;;18.60;51.70;;;;;;5065122;28;20200;-48
2023/03/01 10:42:49;;;;;;;5.00;2.43;;;18.60;51.90;;;;;;5077014;28;20209;-47
2023/03/01 10:45:42;;;;;;;4.20;2.00;;;18.60;52.90;;;;;;5084580;28;20197;-47
2023/03/01 10:48:28;;;;;;;2.00;1.80;;;18.90;52.70;;;;;;5076402;28;20210;-48
2023/03/01 10:51:06;;;;;;;3.87;2.40;;;19.10;52.20;;;;;;5082205;28;20753;-47
2023/03/01 10:53:48;;;;;;;2.80;1.90;;;19.40;51.90;;;;;;5079438;28;20197;-47
2023/03/01 10:56:57;;;;;;;2.40;1.70;;;19.60;51.50;;;;;;5064242;28;20315;-47
2023/03/01 10:59:34;;;;;;;2.63;1.77;;;19.80;51.10;;;;;;5081380;28;20277;-46
2023/03/01 11:02:23;;;;;;;2.23;1.97;;;20.10;50.80;;;;;;5081037;28;20224;-47
2023/03/01 11:05:30;;;;;;;2.00;1.70;;;20.30;50.40;;;;;;5087709;28;20267;-47
2023/03/01 11:08:04;;;;;;;1.97;1.73;;;20.50;50.00;;;;;;5062686;28;20197;-46
2023/03/01 11:10:36;;;;;;;2.50;1.70;;;20.70;49.60;;;;;;5056483;28;20249;-46
2023/03/01 11:13:18;;;;;;;2.03;1.60;;;20.90;49.10;;;;;;5080999;28;20204;-50
2023/03/01 11:16:05;;;;;;;5.23;1.80;;;21.10;48.80;;;;;;5083760;28;20204;-47
2023/03/01 11:18:38;;;;;;;2.40;1.67;;;21.40;48.50;;;;;;5058600;28;20210;-47
2023/03/01 11:21:16;;;;;;;1.63;1.37;;;21.50;48.10;;;;;;5087028;28;20201;-47
2023/03/01 11:23:47;;;;;;;2.93;1.97;;;21.70;47.80;;;;;;5083023;28;20306;-47
2023/03/01 11:26:23;;;;;;;2.43;1.80;;;21.90;47.50;;;;;;5085143;28;20205;-48
2023/03/01 11:29:00;;;;;;;3.27;1.77;;;21.90;46.90;;;;;;5086294;28;20199;-47
2023/03/01 11:31:36;;;;;;;3.00;2.30;;;21.70;47.00;;;;;;5087073;28;20209;-47
2023/03/01 11:34:45;;;;;;;2.30;2.10;;;21.50;46.70;;;;;;5085784;28;20645;-47
2023/03/01 11:38:05;;;;;;;2.20;1.83;;;21.40;46.60;;;;;;5081499;28;20208;-47
2023/03/01 11:41:11;;;;;;;2.73;2.07;;;21.20;46.90;;;;;;5053853;28;20684;-47
2023/03/01 11:43:55;;;;;;;2.17;1.93;;;21.00;46.90;;;;;;5061952;28;20783;-47
2023/03/01 11:46:47;;;;;;;3.77;2.07;;;20.90;47.20;;;;;;5061179;28;20185;-46
2023/03/01 11:49:39;;;;;;;2.60;1.80;;;20.70;47.40;;;;;;5064849;28;20204;-46
2023/03/01 11:52:49;;;;;;;3.97;2.50;;;20.60;47.50;;;;;;5062149;28;20248;-47
2023/03/01 11:55:43;;;;;;;2.60;2.13;;;20.50;47.60;;;;;;5065504;28;20198;-46
2023/03/01 11:58:36;;;;;;;2.77;2.07;;;20.40;47.80;;;;;;5065039;28;20208;-47
2023/03/01 12:01:18;;;;;;;2.60;1.83;;;20.20;48.00;;;;;;5063357;28;20277;-45
2023/03/01 12:04:26;;;;;;;2.03;1.80;;;20.10;48.60;;;;;;5065559;28;20209;-46
2023/03/01 12:07:44;;;;;;;2.20;1.90;;;20.00;49.20;;;;;;5060294;28;20197;-47
2023/03/01 12:10:35;;;;;;;3.47;2.03;;;19.90;50.00;;;;;;5015056;28;20204;-48
2023/03/01 12:13:43;;;;;;;3.07;2.43;;;19.90;50.40;;;;;;5006491;28;20203;-48
2023/03/01 12:16:32;;;;;;;4.60;2.23;;;19.80;50.10;;;;;;5023567;28;20202;-46
2023/03/01 12:19:35;;;;;;;3.60;2.13;;;19.70;50.90;;;;;;5017693;28;20207;-47
2023/03/01 12:22:38;;;;;;;2.30;2.10;;;19.70;50.70;;;;;;5030641;28;20659;-47
2023/03/01 12:25:26;;;;;;;2.93;2.20;;;19.70;51.00;;;;;;5024320;28;20231;-47
2023/03/01 12:28:32;;;;;;;2.87;2.10;;;19.70;51.10;;;;;;5024042;28;20222;-47
2023/03/01 12:31:20;;;;;;;2.07;1.70;;;19.70;50.90;;;;;;5017097;28;20295;-48
2023/03/01 12:34:33;;;;;;;2.70;1.80;;;19.60;50.90;;;;;;5025379;28;20191;-48
2023/03/01 12:37:27;;;;;;;3.33;1.90;;;19.60;50.90;;;;;;5023516;28;20207;-47
2023/03/01 12:40:23;;;;;;;2.03;1.73;;;19.60;50.80;;;;;;5057742;28;20302;-46
2023/03/01 12:43:19;;;;;;;4.90;2.47;;;19.60;51.20;;;;;;5029238;28;20674;-47
2023/03/01 12:46:25;;;;;;;2.20;2.00;;;19.60;50.90;;;;;;5068178;28;20213;-46
2023/03/01 12:49:13;;;;;;;4.07;2.30;;;19.70;51.50;;;;;;5070723;28;20189;-47
2023/03/01 12:52:01;;;;;;;2.30;1.93;;;19.70;50.90;;;;;;5084688;28;20197;-47
2023/03/01 12:54:38;;;;;;;2.57;1.93;;;19.70;50.80;;;;;;5065685;28;20240;-46
2023/03/01 12:57:42;;;;;;;3.13;2.27;;;19.70;51.80;;;;;;5067729;28;20330;-46
2023/03/01 13:00:58;;;;;;;2.30;2.10;;;19.70;51.70;;;;;;5048903;28;20581;-47
2023/03/01 13:03:52;;;;;;;2.27;1.93;;;19.70;51.90;;;;;;5008053;28;20227;-48
2023/03/01 13:06:53;;;;;;;2.10;1.90;;;19.70;51.60;;;;;;5007516;28;20199;-47
2023/03/01 13:10:01;;;;;;;2.43;2.00;;;19.70;51.90;;;;;;5068895;28;20185;-48
2023/03/01 13:12:57;;;;;;;5.47;2.10;;;19.70;51.60;;;;;;5061849;28;20210;-47
2023/03/01 13:15:37;;;;;;;2.60;2.07;;;19.70;51.90;;;;;;5066227;28;20186;-47
2023/03/01 13:18:25;;;;;;;4.20;1.97;;;19.70;51.20;;;;;;5060630;28;20189;-47
2023/03/01 13:20:57;;;;;;;2.07;1.87;;;19.70;51.30;;;;;;5070684;28;20204;-47
2023/03/01 13:23:32;;;;;;;2.27;2.07;;;19.70;51.40;;;;;;5052827;28;20734;-47
2023/03/01 13:26:18;;;;;;;2.70;2.00;;;19.80;51.50;;;;;;5053243;28;20220;-48
2023/03/01 13:28:56;;;;;;;3.30;1.87;;;19.70;51.80;;;;;;5064049;28;20193;-47
2023/03/01 13:31:28;;;;;;;2.30;2.10;;;19.70;51.60;;;;;;5063936;28;20677;-46
2023/03/01 13:34:07;;;;;;;2.70;2.20;;;19.70;51.60;;;;;;5063158;28;20202;-47
2023/03/01 13:36:35;;;;;;;2.30;1.80;;;19.80;51.40;;;;;;5060632;28;20209;-46
2023/03/01 13:39:26;;;;;;;3.67;1.80;;;19.80;52.10;;;;;;5066595;28;20245;-47
2023/03/01 13:42:00;;;;;;;2.20;1.80;;;19.80;51.60;;;;;;5061193;28;20630;-47